Meteo Giornale » Osservazioni meteo Stati Uniti (USA) » Coeur D'Alene
ore: 05:56 - Osservazioni Meteo Coeur D'Alene
Lat. 47° 46' N Lon. 116° 49' W Alt. 707 metri s.l.m.
13 °C
Sereno
Temp. 24 Ore
8 °C
27 °C
Est/Nord-Est
14.8 Km/h
Dew point 8 °C
Umidità 71 %
Visibilità 10 Km
Il sole sorge alle ore 06:06
Il sole tramonta alle ore 19:28
| Data e Ora | Cielo e Fenomeni | T °C | DP °C | Um. % | Pres. hPa | Vis. km | Vento km/h | |
|---|---|---|---|---|---|---|---|---|
| Oggi h: 05:56 | Sereno | 13 | 8 | 71 | 1010 | 10 | E/NE 14.8 | |
| Oggi h: 04:56 | Sereno | 13 | 7 | 66 | 1010 | 10 | E/NE 16.7 | |
| Oggi h: 03:56 | Sereno | 13 | 7 | 66 | 1010 | 10 | E/NE 14.8 | |
| Oggi h: 02:56 | Sereno | 14 | 6 | 58 | 1010 | 10 | E/NE 14.8 | |
| Oggi h: 01:56 | Sereno | 15 | 6 | 54 | 1010 | 10 | E 13 | |
| Oggi h: 00:56 | Sereno | 16 | 6 | 51 | 1010 | 10 | E/NE 16.7 | |
| Ieri h: 23:56 | Sereno | 16 | 6 | 51 | 1010 | 10 | E 11.1 | |
| Ieri h: 22:56 | Sereno | 17 | 5 | 45 | 1010 | 10 | E 11.1 | |
| Ieri h: 21:56 | Sereno | 18 | 5 | 42 | 1011 | 10 | E/NE 7.4 | |
| Ieri h: 20:56 | Sereno | 19 | 5 | 39 | 1011 | 13 | N/NE 11.1 | |
| Ieri h: 19:56 | Sereno | 22 | 4 | 30 | 1011 | 10 | N/NE 7.4 | |
| Ieri h: 18:56 | Sereno | 26 | 3 | 22 | 1011 | 10 | N 0 | |
| Ieri h: 17:56 | Sereno | 27 | 3 | 21 | 1011 | 10 | N 5.5 | |
| Ieri h: 16:56 | Sereno | 27 | 3 | 21 | 1012 | 10 | N 5.5 | |
| Ieri h: 15:56 | Sereno | 27 | 3 | 21 | 1012 | 10 | N 0 | |
| Ieri h: 14:56 | Sereno | 26 | 4 | 24 | 1013 | 13 | N 9.3 | |
| Ieri h: 13:56 | Sereno | 26 | 4 | 24 | 1014 | 10 | N 0 | |
| Ieri h: 12:56 | Sereno | 24 | 3 | 25 | 1015 | 13 | N 0 | |
| Ieri h: 11:56 | Sereno | 23 | 4 | 28 | 1016 | 10 | N 5.5 | |
| Ieri h: 10:56 | Sereno | 21 | 6 | 37 | 1017 | 10 | E/NE 9.3 | |
| Ieri h: 09:56 | Sereno | 19 | 6 | 42 | 1017 | 10 | E 9.3 | |
| Ieri h: 08:56 | Sereno | 16 | 6 | 51 | 1017 | 10 | NE 14.8 | |
| Ieri h: 07:56 | Sereno | 12 | 4 | 57 | 1018 | 10 | E/NE 11.1 | |
| Ieri h: 06:56 | Sereno | 8 | 3 | 70 | 1017 | 10 | N 5.5 | |



